Impacts METAR Board
IDs:

KBWI - Baltimore-Washington, MD, US

Updated at: 1300 UTC 15 Aug 2018
Potential Impact None Slight Moderate High
Time 15/01Z 15/02Z 15/03Z 15/04Z 15/05Z 15/06Z 15/07Z 15/08Z 15/09Z 15/10Z 15/11Z 15/12Z 15/13Z
Temp74 73 72 72 72 71 70 70 70 68 69 72 77
Dewpt68 68 67 67 66 66 66 65 65 65 66 67 68
Altim29.93 29.95 29.95 29.96 29.96 29.94 29.94 29.95 29.95 29.95 29.97 29.98 29.99
VIS10 10 10 10 10 10 10 10 10 10 10 10 10
CIG160 160 -- 100 110 -- -- -- -- -- -- -- --
CoverBKNBKNSCTOVCBKNSCTSCTCLRFEWCLRSCTSCTSCT
FltCatVFRVFRVFRVFRVFRVFRVFRVFRVFRVFRVFRVFRVFR
WX--------------------------
WDir240230220260260260250260260260260270280
WSpd4 4 3 6 8 5 5 6 7 6 6 7 5
WGst-- -- -- -- -- -- -- -- -- -- -- -- --
Raw hourly METARs
KBWI 150054Z 24004KT 10SM FEW110 BKN160 BKN250 23/20 A2993 RMK AO2 SLP133 T02330200
KBWI 150154Z 23004KT 10SM BKN160 23/20 A2995 RMK AO2 SLP140 T02280200
KBWI 150254Z 22003KT 10SM FEW110 SCT160 22/19 A2995 RMK AO2 SLP141 T02220194 51013
KBWI 150354Z 26006KT 10SM BKN100 OVC160 22/19 A2996 RMK AO2 SLP143 T02220194
KBWI 150454Z 26008KT 10SM BKN110 BKN160 22/19 A2996 RMK AO2 SLP143 T02220189 402890189
KBWI 150554Z 26005KT 10SM FEW110 SCT150 22/19 A2994 RMK AO2 SLP138 T02170189 10239 20217 58003
KBWI 150654Z 25005KT 10SM SCT150 21/19 A2994 RMK AO2 SLP138 T02110189
KBWI 150754Z 26006KT 10SM CLR 21/18 A2995 RMK AO2 SLP140 T02110183
KBWI 150854Z 26007KT 10SM FEW150 21/18 A2995 RMK AO2 SLP140 T02110183 51002
KBWI 150954Z 26006KT 10SM CLR 20/18 A2995 RMK AO2 SLP141 T02000183
KBWI 151054Z 26006KT 10SM FEW150 SCT250 21/19 A2997 RMK AO2 SLP148 T02060189
KBWI 151154Z 27007KT 10SM FEW150 SCT250 22/19 A2998 RMK AO2 SLP150 70002 T02220194 10222 20200 53009
KBWI 151254Z 28005KT 10SM FEW150 SCT250 25/20 A2999 RMK AO2 SLP155 T02500200



Page loaded:  13:31 UTC  |   06:31 AM Pacific  |   07:31 AM Mountain  |   08:31 AM Central  |   09:31 AM Eastern

 

ADVISORIES

FORECASTS

FORECASTS

OBSERVATIONS

USER TOOLS

ABOUT US